sensor_id;sensor_type;location;lat;lon;timestamp;P1;durP1;ratioP1;P2;durP2;ratioP2
19163;SDS011;9714;51.208;4.242;2022-07-23T00:00:14;13.63;;;6.50;;
19163;SDS011;9714;51.208;4.242;2022-07-23T00:02:42;14.67;;;6.77;;
19163;SDS011;9714;51.208;4.242;2022-07-23T00:05:10;14.93;;;6.60;;
19163;SDS011;9714;51.208;4.242;2022-07-23T00:07:37;18.10;;;7.20;;
19163;SDS011;9714;51.208;4.242;2022-07-23T00:10:04;15.63;;;6.10;;
19163;SDS011;9714;51.208;4.242;2022-07-23T00:12:33;15.70;;;6.60;;
19163;SDS011;9714;51.208;4.242;2022-07-23T00:15:00;13.53;;;6.60;;
19163;SDS011;9714;51.208;4.242;2022-07-23T00:17:28;11.70;;;6.57;;
19163;SDS011;9714;51.208;4.242;2022-07-23T00:19:55;14.40;;;5.60;;
19163;SDS011;9714;51.208;4.242;2022-07-23T00:22:22;16.33;;;6.53;;
19163;SDS011;9714;51.208;4.242;2022-07-23T00:24:49;14.27;;;6.20;;
19163;SDS011;9714;51.208;4.242;2022-07-23T00:27:16;14.23;;;7.20;;
19163;SDS011;9714;51.208;4.242;2022-07-23T00:29:45;14.87;;;6.63;;
19163;SDS011;9714;51.208;4.242;2022-07-23T00:32:12;13.60;;;6.63;;
19163;SDS011;9714;51.208;4.242;2022-07-23T00:34:39;16.07;;;6.20;;
19163;SDS011;9714;51.208;4.242;2022-07-23T00:37:06;19.10;;;6.13;;
19163;SDS011;9714;51.208;4.242;2022-07-23T00:39:33;14.77;;;6.40;;
19163;SDS011;9714;51.208;4.242;2022-07-23T00:42:00;13.23;;;5.90;;
19163;SDS011;9714;51.208;4.242;2022-07-23T00:44:27;15.23;;;5.87;;
19163;SDS011;9714;51.208;4.242;2022-07-23T00:46:57;18.50;;;6.00;;
19163;SDS011;9714;51.208;4.242;2022-07-23T00:49:26;13.20;;;6.10;;
19163;SDS011;9714;51.208;4.242;2022-07-23T00:51:54;14.10;;;5.93;;
19163;SDS011;9714;51.208;4.242;2022-07-23T00:54:22;14.40;;;6.33;;
19163;SDS011;9714;51.208;4.242;2022-07-23T00:56:52;12.63;;;5.70;;
19163;SDS011;9714;51.208;4.242;2022-07-23T00:59:20;13.17;;;5.30;;
19163;SDS011;9714;51.208;4.242;2022-07-23T01:01:47;11.80;;;5.37;;
19163;SDS011;9714;51.208;4.242;2022-07-23T01:04:16;13.47;;;5.53;;
19163;SDS011;9714;51.208;4.242;2022-07-23T01:06:43;13.47;;;5.70;;
19163;SDS011;9714;51.208;4.242;2022-07-23T01:09:11;16.47;;;6.07;;
19163;SDS011;9714;51.208;4.242;2022-07-23T01:11:38;16.47;;;6.27;;
19163;SDS011;9714;51.208;4.242;2022-07-23T01:14:13;13.90;;;6.73;;
19163;SDS011;9714;51.208;4.242;2022-07-23T01:16:42;15.03;;;6.33;;
19163;SDS011;9714;51.208;4.242;2022-07-23T01:19:10;18.60;;;6.57;;
19163;SDS011;9714;51.208;4.242;2022-07-23T01:21:40;16.10;;;5.90;;
19163;SDS011;9714;51.208;4.242;2022-07-23T01:24:10;18.10;;;6.07;;
19163;SDS011;9714;51.208;4.242;2022-07-23T01:26:38;14.97;;;5.43;;
19163;SDS011;9714;51.208;4.242;2022-07-23T01:29:06;16.57;;;5.70;;
19163;SDS011;9714;51.208;4.242;2022-07-23T01:31:33;11.03;;;5.07;;
19163;SDS011;9714;51.208;4.242;2022-07-23T01:34:00;13.00;;;5.50;;
19163;SDS011;9714;51.208;4.242;2022-07-23T01:36:28;13.37;;;5.67;;
19163;SDS011;9714;51.208;4.242;2022-07-23T01:38:55;12.80;;;5.00;;
19163;SDS011;9714;51.208;4.242;2022-07-23T01:41:23;11.37;;;5.73;;
19163;SDS011;9714;51.208;4.242;2022-07-23T01:43:50;12.53;;;5.50;;
19163;SDS011;9714;51.208;4.242;2022-07-23T01:46:17;12.77;;;5.00;;
19163;SDS011;9714;51.208;4.242;2022-07-23T01:48:44;14.67;;;5.07;;
19163;SDS011;9714;51.208;4.242;2022-07-23T01:51:11;17.30;;;5.70;;
19163;SDS011;9714;51.208;4.242;2022-07-23T01:53:38;12.87;;;5.83;;
19163;SDS011;9714;51.208;4.242;2022-07-23T01:56:05;15.87;;;5.67;;
19163;SDS011;9714;51.208;4.242;2022-07-23T01:58:34;13.23;;;6.00;;
19163;SDS011;9714;51.208;4.242;2022-07-23T02:01:01;15.73;;;6.37;;
19163;SDS011;9714;51.208;4.242;2022-07-23T02:03:28;13.43;;;5.63;;
19163;SDS011;9714;51.208;4.242;2022-07-23T02:05:55;11.80;;;5.20;;
19163;SDS011;9714;51.208;4.242;2022-07-23T02:08:22;11.63;;;4.97;;
19163;SDS011;9714;51.208;4.242;2022-07-23T02:10:49;12.10;;;5.63;;
19163;SDS011;9714;51.208;4.242;2022-07-23T02:13:16;10.97;;;5.60;;
19163;SDS011;9714;51.208;4.242;2022-07-23T02:15:45;13.97;;;5.63;;
19163;SDS011;9714;51.208;4.242;2022-07-23T02:18:12;10.93;;;5.30;;
19163;SDS011;9714;51.208;4.242;2022-07-23T02:20:39;11.57;;;5.43;;
19163;SDS011;9714;51.208;4.242;2022-07-23T02:23:06;15.37;;;5.90;;
19163;SDS011;9714;51.208;4.242;2022-07-23T02:25:33;20.20;;;6.33;;
19163;SDS011;9714;51.208;4.242;2022-07-23T02:28:00;12.40;;;6.03;;
19163;SDS011;9714;51.208;4.242;2022-07-23T02:30:27;13.33;;;5.87;;
19163;SDS011;9714;51.208;4.242;2022-07-23T02:32:56;12.17;;;6.33;;
19163;SDS011;9714;51.208;4.242;2022-07-23T02:35:23;14.50;;;5.97;;
19163;SDS011;9714;51.208;4.242;2022-07-23T02:37:50;14.00;;;6.53;;
19163;SDS011;9714;51.208;4.242;2022-07-23T02:40:17;17.10;;;6.60;;
19163;SDS011;9714;51.208;4.242;2022-07-23T02:42:44;13.03;;;5.97;;
19163;SDS011;9714;51.208;4.242;2022-07-23T02:45:11;15.90;;;6.03;;
19163;SDS011;9714;51.208;4.242;2022-07-23T02:47:38;16.37;;;6.30;;
19163;SDS011;9714;51.208;4.242;2022-07-23T02:50:07;13.47;;;6.33;;
19163;SDS011;9714;51.208;4.242;2022-07-23T02:52:35;13.27;;;6.13;;
19163;SDS011;9714;51.208;4.242;2022-07-23T02:55:02;13.20;;;6.33;;
19163;SDS011;9714;51.208;4.242;2022-07-23T02:57:30;12.83;;;6.00;;
19163;SDS011;9714;51.208;4.242;2022-07-23T02:59:58;14.33;;;5.63;;
19163;SDS011;9714;51.208;4.242;2022-07-23T03:02:25;13.43;;;6.00;;
19163;SDS011;9714;51.208;4.242;2022-07-23T03:04:52;14.17;;;6.40;;
19163;SDS011;9714;51.208;4.242;2022-07-23T03:07:20;12.03;;;5.90;;
19163;SDS011;9714;51.208;4.242;2022-07-23T03:09:47;15.33;;;5.60;;
19163;SDS011;9714;51.208;4.242;2022-07-23T03:12:14;12.10;;;5.43;;
19163;SDS011;9714;51.208;4.242;2022-07-23T03:14:41;11.90;;;5.53;;
19163;SDS011;9714;51.208;4.242;2022-07-23T03:17:10;13.90;;;6.13;;
19163;SDS011;9714;51.208;4.242;2022-07-23T03:19:38;12.60;;;5.73;;
19163;SDS011;9714;51.208;4.242;2022-07-23T03:22:07;12.20;;;5.20;;
19163;SDS011;9714;51.208;4.242;2022-07-23T03:24:36;12.50;;;6.07;;
19163;SDS011;9714;51.208;4.242;2022-07-23T03:27:22;13.70;;;6.10;;
19163;SDS011;9714;51.208;4.242;2022-07-23T03:29:49;12.40;;;5.63;;
19163;SDS011;9714;51.208;4.242;2022-07-23T03:32:18;14.13;;;5.83;;
19163;SDS011;9714;51.208;4.242;2022-07-23T03:34:45;11.00;;;5.60;;
19163;SDS011;9714;51.208;4.242;2022-07-23T03:37:12;13.13;;;5.70;;
19163;SDS011;9714;51.208;4.242;2022-07-23T03:39:40;10.73;;;6.00;;
19163;SDS011;9714;51.208;4.242;2022-07-23T03:42:07;11.40;;;5.83;;
19163;SDS011;9714;51.208;4.242;2022-07-23T03:44:34;12.87;;;5.77;;
19163;SDS011;9714;51.208;4.242;2022-07-23T03:47:03;12.97;;;6.50;;
19163;SDS011;9714;51.208;4.242;2022-07-23T03:49:31;10.97;;;5.80;;
19163;SDS011;9714;51.208;4.242;2022-07-23T03:51:59;17.57;;;7.20;;
19163;SDS011;9714;51.208;4.242;2022-07-23T03:54:26;14.70;;;7.30;;
19163;SDS011;9714;51.208;4.242;2022-07-23T03:56:54;13.20;;;7.00;;
19163;SDS011;9714;51.208;4.242;2022-07-23T03:59:21;14.13;;;6.47;;
19163;SDS011;9714;51.208;4.242;2022-07-23T04:01:48;17.83;;;6.70;;
19163;SDS011;9714;51.208;4.242;2022-07-23T04:04:15;14.80;;;7.60;;
19163;SDS011;9714;51.208;4.242;2022-07-23T04:06:42;13.30;;;7.30;;
19163;SDS011;9714;51.208;4.242;2022-07-23T04:09:09;16.40;;;7.47;;
19163;SDS011;9714;51.208;4.242;2022-07-23T04:11:36;19.73;;;7.30;;
19163;SDS011;9714;51.208;4.242;2022-07-23T04:14:04;22.27;;;8.13;;
19163;SDS011;9714;51.208;4.242;2022-07-23T04:16:32;14.90;;;7.80;;
19163;SDS011;9714;51.208;4.242;2022-07-23T04:18:59;15.10;;;8.23;;
19163;SDS011;9714;51.208;4.242;2022-07-23T04:21:26;12.93;;;7.10;;
19163;SDS011;9714;51.208;4.242;2022-07-23T04:23:53;13.50;;;7.40;;
19163;SDS011;9714;51.208;4.242;2022-07-23T04:26:20;18.73;;;8.03;;
19163;SDS011;9714;51.208;4.242;2022-07-23T04:28:47;14.30;;;7.57;;
19163;SDS011;9714;51.208;4.242;2022-07-23T04:31:15;16.50;;;8.33;;
19163;SDS011;9714;51.208;4.242;2022-07-23T04:33:42;21.33;;;8.50;;
19163;SDS011;9714;51.208;4.242;2022-07-23T04:36:09;17.03;;;8.17;;
19163;SDS011;9714;51.208;4.242;2022-07-23T04:38:36;15.77;;;8.73;;
19163;SDS011;9714;51.208;4.242;2022-07-23T04:41:03;18.00;;;8.63;;
19163;SDS011;9714;51.208;4.242;2022-07-23T04:43:30;17.27;;;8.60;;
19163;SDS011;9714;51.208;4.242;2022-07-23T04:45:57;12.93;;;7.80;;
19163;SDS011;9714;51.208;4.242;2022-07-23T04:48:25;20.10;;;8.23;;
19163;SDS011;9714;51.208;4.242;2022-07-23T04:50:52;14.97;;;8.17;;
19163;SDS011;9714;51.208;4.242;2022-07-23T04:53:19;16.17;;;8.00;;
19163;SDS011;9714;51.208;4.242;2022-07-23T04:55:46;14.30;;;8.00;;
19163;SDS011;9714;51.208;4.242;2022-07-23T04:58:13;14.23;;;7.57;;
19163;SDS011;9714;51.208;4.242;2022-07-23T05:00:39;16.87;;;8.00;;
19163;SDS011;9714;51.208;4.242;2022-07-23T05:03:06;15.17;;;7.37;;
19163;SDS011;9714;51.208;4.242;2022-07-23T05:05:35;12.77;;;7.73;;
19163;SDS011;9714;51.208;4.242;2022-07-23T05:08:03;15.77;;;8.17;;
19163;SDS011;9714;51.208;4.242;2022-07-23T05:10:30;21.97;;;9.17;;
19163;SDS011;9714;51.208;4.242;2022-07-23T05:12:57;20.30;;;7.93;;
19163;SDS011;9714;51.208;4.242;2022-07-23T05:15:24;20.20;;;8.27;;
19163;SDS011;9714;51.208;4.242;2022-07-23T05:17:51;16.63;;;8.07;;
19163;SDS011;9714;51.208;4.242;2022-07-23T05:20:18;18.07;;;7.90;;
19163;SDS011;9714;51.208;4.242;2022-07-23T05:22:47;20.23;;;9.87;;
19163;SDS011;9714;51.208;4.242;2022-07-23T05:25:13;15.53;;;9.00;;
19163;SDS011;9714;51.208;4.242;2022-07-23T05:27:40;16.97;;;8.80;;
19163;SDS011;9714;51.208;4.242;2022-07-23T05:30:08;19.00;;;8.50;;
19163;SDS011;9714;51.208;4.242;2022-07-23T05:32:35;17.10;;;8.40;;
19163;SDS011;9714;51.208;4.242;2022-07-23T05:35:03;19.50;;;9.30;;
19163;SDS011;9714;51.208;4.242;2022-07-23T05:37:30;16.10;;;9.13;;
19163;SDS011;9714;51.208;4.242;2022-07-23T05:40:01;14.73;;;7.63;;
19163;SDS011;9714;51.208;4.242;2022-07-23T05:42:28;14.93;;;8.40;;
19163;SDS011;9714;51.208;4.242;2022-07-23T05:44:55;16.17;;;8.10;;
19163;SDS011;9714;51.208;4.242;2022-07-23T05:47:22;17.63;;;8.03;;
19163;SDS011;9714;51.208;4.242;2022-07-23T05:49:49;14.17;;;7.60;;
19163;SDS011;9714;51.208;4.242;2022-07-23T05:52:17;16.20;;;7.73;;
19163;SDS011;9714;51.208;4.242;2022-07-23T05:54:44;18.07;;;8.17;;
19163;SDS011;9714;51.208;4.242;2022-07-23T05:57:12;18.40;;;8.03;;
19163;SDS011;9714;51.208;4.242;2022-07-23T05:59:39;13.70;;;6.53;;
19163;SDS011;9714;51.208;4.242;2022-07-23T06:02:07;13.90;;;6.57;;
19163;SDS011;9714;51.208;4.242;2022-07-23T06:04:34;18.03;;;7.20;;
19163;SDS011;9714;51.208;4.242;2022-07-23T06:07:01;12.27;;;6.83;;
19163;SDS011;9714;51.208;4.242;2022-07-23T06:09:28;16.30;;;6.40;;
19163;SDS011;9714;51.208;4.242;2022-07-23T06:11:55;18.57;;;6.23;;
19163;SDS011;9714;51.208;4.242;2022-07-23T06:14:23;15.00;;;6.63;;
19163;SDS011;9714;51.208;4.242;2022-07-23T06:16:50;13.83;;;6.03;;
19163;SDS011;9714;51.208;4.242;2022-07-23T06:19:17;16.53;;;6.87;;
19163;SDS011;9714;51.208;4.242;2022-07-23T06:21:44;14.53;;;6.57;;
19163;SDS011;9714;51.208;4.242;2022-07-23T06:24:11;13.40;;;5.57;;
19163;SDS011;9714;51.208;4.242;2022-07-23T06:26:38;14.67;;;6.40;;
19163;SDS011;9714;51.208;4.242;2022-07-23T06:29:05;13.40;;;6.17;;
19163;SDS011;9714;51.208;4.242;2022-07-23T06:31:33;14.23;;;5.40;;
19163;SDS011;9714;51.208;4.242;2022-07-23T06:34:00;11.80;;;4.83;;
19163;SDS011;9714;51.208;4.242;2022-07-23T06:36:28;14.27;;;5.43;;
19163;SDS011;9714;51.208;4.242;2022-07-23T06:38:55;11.03;;;4.83;;
19163;SDS011;9714;51.208;4.242;2022-07-23T06:41:22;13.97;;;5.33;;
19163;SDS011;9714;51.208;4.242;2022-07-23T06:43:49;12.33;;;4.77;;
19163;SDS011;9714;51.208;4.242;2022-07-23T06:46:16;12.38;;;5.40;;
19163;SDS011;9714;51.208;4.242;2022-07-23T06:48:44;10.52;;;5.18;;
19163;SDS011;9714;51.208;4.242;2022-07-23T06:51:11;10.82;;;4.30;;
19163;SDS011;9714;51.208;4.242;2022-07-23T06:53:38;14.00;;;4.93;;
19163;SDS011;9714;51.208;4.242;2022-07-23T06:56:07;12.40;;;4.83;;
19163;SDS011;9714;51.208;4.242;2022-07-23T06:58:34;12.23;;;5.13;;
19163;SDS011;9714;51.208;4.242;2022-07-23T07:01:01;12.87;;;4.93;;
19163;SDS011;9714;51.208;4.242;2022-07-23T07:03:28;13.30;;;4.63;;
19163;SDS011;9714;51.208;4.242;2022-07-23T07:05:56;10.40;;;4.93;;
19163;SDS011;9714;51.208;4.242;2022-07-23T07:08:23;9.60;;;4.27;;
19163;SDS011;9714;51.208;4.242;2022-07-23T07:10:50;11.17;;;4.40;;
19163;SDS011;9714;51.208;4.242;2022-07-23T07:13:17;12.20;;;4.70;;
19163;SDS011;9714;51.208;4.242;2022-07-23T07:15:44;12.70;;;4.50;;
19163;SDS011;9714;51.208;4.242;2022-07-23T07:18:11;11.45;;;4.30;;
19163;SDS011;9714;51.208;4.242;2022-07-23T07:20:38;12.48;;;4.70;;
19163;SDS011;9714;51.208;4.242;2022-07-23T07:23:06;12.93;;;5.20;;
19163;SDS011;9714;51.208;4.242;2022-07-23T07:25:33;13.63;;;5.38;;
19163;SDS011;9714;51.208;4.242;2022-07-23T07:28:01;11.15;;;5.18;;
19163;SDS011;9714;51.208;4.242;2022-07-23T07:30:28;11.48;;;5.05;;
19163;SDS011;9714;51.208;4.242;2022-07-23T07:32:55;13.45;;;5.00;;
19163;SDS011;9714;51.208;4.242;2022-07-23T07:35:22;13.25;;;4.80;;
19163;SDS011;9714;51.208;4.242;2022-07-23T07:37:50;10.07;;;4.35;;
19163;SDS011;9714;51.208;4.242;2022-07-23T07:40:18;9.88;;;4.10;;
19163;SDS011;9714;51.208;4.242;2022-07-23T07:42:45;12.50;;;3.95;;
19163;SDS011;9714;51.208;4.242;2022-07-23T07:45:12;12.70;;;5.28;;
19163;SDS011;9714;51.208;4.242;2022-07-23T07:47:40;12.60;;;4.65;;
19163;SDS011;9714;51.208;4.242;2022-07-23T07:50:07;12.35;;;5.20;;
19163;SDS011;9714;51.208;4.242;2022-07-23T07:52:34;10.57;;;4.60;;
19163;SDS011;9714;51.208;4.242;2022-07-23T07:55:03;12.77;;;5.85;;
19163;SDS011;9714;51.208;4.242;2022-07-23T07:57:32;14.50;;;5.47;;
19163;SDS011;9714;51.208;4.242;2022-07-23T07:59:59;15.35;;;5.55;;
19163;SDS011;9714;51.208;4.242;2022-07-23T08:02:26;14.23;;;5.72;;
19163;SDS011;9714;51.208;4.242;2022-07-23T08:04:53;15.65;;;5.72;;
19163;SDS011;9714;51.208;4.242;2022-07-23T08:07:22;19.58;;;6.53;;
19163;SDS011;9714;51.208;4.242;2022-07-23T08:09:49;14.55;;;5.70;;
19163;SDS011;9714;51.208;4.242;2022-07-23T08:12:16;13.38;;;5.93;;
19163;SDS011;9714;51.208;4.242;2022-07-23T08:14:44;12.10;;;5.40;;
19163;SDS011;9714;51.208;4.242;2022-07-23T08:17:11;11.82;;;5.00;;
19163;SDS011;9714;51.208;4.242;2022-07-23T08:19:38;14.32;;;5.53;;
19163;SDS011;9714;51.208;4.242;2022-07-23T08:22:06;12.05;;;5.22;;
19163;SDS011;9714;51.208;4.242;2022-07-23T08:24:33;12.80;;;5.43;;
19163;SDS011;9714;51.208;4.242;2022-07-23T08:27:00;10.60;;;4.70;;
19163;SDS011;9714;51.208;4.242;2022-07-23T08:29:28;12.25;;;5.63;;
19163;SDS011;9714;51.208;4.242;2022-07-23T08:31:56;12.45;;;5.05;;
19163;SDS011;9714;51.208;4.242;2022-07-23T08:34:23;13.88;;;5.25;;
19163;SDS011;9714;51.208;4.242;2022-07-23T08:36:50;14.02;;;5.57;;
19163;SDS011;9714;51.208;4.242;2022-07-23T08:39:17;9.98;;;4.88;;
19163;SDS011;9714;51.208;4.242;2022-07-23T08:41:43;14.27;;;5.07;;
19163;SDS011;9714;51.208;4.242;2022-07-23T08:44:10;9.95;;;4.88;;
19163;SDS011;9714;51.208;4.242;2022-07-23T08:46:38;10.77;;;4.43;;
19163;SDS011;9714;51.208;4.242;2022-07-23T08:49:07;11.25;;;4.72;;
19163;SDS011;9714;51.208;4.242;2022-07-23T08:51:34;10.77;;;4.65;;
19163;SDS011;9714;51.208;4.242;2022-07-23T08:54:01;10.55;;;4.93;;
19163;SDS011;9714;51.208;4.242;2022-07-23T08:56:29;9.70;;;4.60;;
19163;SDS011;9714;51.208;4.242;2022-07-23T08:58:56;8.75;;;4.13;;
19163;SDS011;9714;51.208;4.242;2022-07-23T09:01:24;15.40;;;4.97;;
19163;SDS011;9714;51.208;4.242;2022-07-23T09:03:51;11.65;;;4.57;;
19163;SDS011;9714;51.208;4.242;2022-07-23T09:06:19;12.05;;;4.30;;
19163;SDS011;9714;51.208;4.242;2022-07-23T09:08:46;10.00;;;4.03;;
19163;SDS011;9714;51.208;4.242;2022-07-23T09:11:15;9.18;;;3.90;;
19163;SDS011;9714;51.208;4.242;2022-07-23T09:13:46;9.77;;;3.40;;
19163;SDS011;9714;51.208;4.242;2022-07-23T09:16:14;10.77;;;3.95;;
19163;SDS011;9714;51.208;4.242;2022-07-23T09:18:44;11.57;;;4.30;;
19163;SDS011;9714;51.208;4.242;2022-07-23T09:21:20;10.27;;;3.92;;
19163;SDS011;9714;51.208;4.242;2022-07-23T09:23:50;9.38;;;3.88;;
19163;SDS011;9714;51.208;4.242;2022-07-23T09:26:23;14.73;;;4.30;;
19163;SDS011;9714;51.208;4.242;2022-07-23T09:28:55;8.68;;;3.70;;
19163;SDS011;9714;51.208;4.242;2022-07-23T09:31:24;10.77;;;4.25;;
19163;SDS011;9714;51.208;4.242;2022-07-23T09:34:01;10.45;;;4.00;;
19163;SDS011;9714;51.208;4.242;2022-07-23T09:36:38;9.65;;;3.63;;
19163;SDS011;9714;51.208;4.242;2022-07-23T09:39:06;13.25;;;4.10;;
19163;SDS011;9714;51.208;4.242;2022-07-23T09:41:35;10.93;;;3.72;;
19163;SDS011;9714;51.208;4.242;2022-07-23T09:44:07;9.73;;;4.20;;
19163;SDS011;9714;51.208;4.242;2022-07-23T09:46:37;11.73;;;3.80;;
19163;SDS011;9714;51.208;4.242;2022-07-23T09:49:16;10.43;;;3.92;;
19163;SDS011;9714;51.208;4.242;2022-07-23T09:51:49;9.10;;;3.95;;
19163;SDS011;9714;51.208;4.242;2022-07-23T09:54:26;12.73;;;4.57;;
19163;SDS011;9714;51.208;4.242;2022-07-23T09:56:58;10.00;;;3.67;;
19163;SDS011;9714;51.208;4.242;2022-07-23T09:59:28;12.32;;;4.05;;
19163;SDS011;9714;51.208;4.242;2022-07-23T10:01:58;8.38;;;3.55;;
19163;SDS011;9714;51.208;4.242;2022-07-23T10:04:26;8.60;;;3.22;;
19163;SDS011;9714;51.208;4.242;2022-07-23T10:06:57;8.93;;;3.88;;
19163;SDS011;9714;51.208;4.242;2022-07-23T10:09:26;9.80;;;3.55;;
19163;SDS011;9714;51.208;4.242;2022-07-23T10:11:55;9.23;;;3.30;;
19163;SDS011;9714;51.208;4.242;2022-07-23T10:14:33;9.60;;;4.45;;
19163;SDS011;9714;51.208;4.242;2022-07-23T10:17:02;12.68;;;3.65;;
19163;SDS011;9714;51.208;4.242;2022-07-23T10:19:29;7.45;;;3.58;;
19163;SDS011;9714;51.208;4.242;2022-07-23T10:22:00;9.45;;;3.83;;
19163;SDS011;9714;51.208;4.242;2022-07-23T10:27:32;10.60;;;4.40;;
19163;SDS011;9714;51.208;4.242;2022-07-23T10:30:10;9.35;;;4.03;;
19163;SDS011;9714;51.208;4.242;2022-07-23T10:32:44;8.27;;;3.88;;
19163;SDS011;9714;51.208;4.242;2022-07-23T10:35:22;9.73;;;3.67;;
19163;SDS011;9714;51.208;4.242;2022-07-23T10:38:00;10.68;;;4.45;;
19163;SDS011;9714;51.208;4.242;2022-07-23T10:40:33;9.57;;;3.83;;
19163;SDS011;9714;51.208;4.242;2022-07-23T10:43:00;9.85;;;3.75;;
19163;SDS011;9714;51.208;4.242;2022-07-23T10:45:28;14.73;;;4.72;;
19163;SDS011;9714;51.208;4.242;2022-07-23T10:48:11;9.90;;;3.67;;
19163;SDS011;9714;51.208;4.242;2022-07-23T10:50:41;10.05;;;2.92;;
19163;SDS011;9714;51.208;4.242;2022-07-23T10:53:14;12.00;;;4.07;;
19163;SDS011;9714;51.208;4.242;2022-07-23T10:55:46;10.90;;;3.58;;
19163;SDS011;9714;51.208;4.242;2022-07-23T10:58:21;6.95;;;2.90;;
19163;SDS011;9714;51.208;4.242;2022-07-23T11:04:02;8.45;;;2.25;;
19163;SDS011;9714;51.208;4.242;2022-07-23T11:09:38;5.68;;;1.85;;
19163;SDS011;9714;51.208;4.242;2022-07-23T11:15:00;3.47;;;1.02;;
19163;SDS011;9714;51.208;4.242;2022-07-23T11:17:30;8.05;;;2.55;;
19163;SDS011;9714;51.208;4.242;2022-07-23T11:20:15;5.28;;;2.03;;
19163;SDS011;9714;51.208;4.242;2022-07-23T11:22:51;4.50;;;1.98;;
19163;SDS011;9714;51.208;4.242;2022-07-23T11:25:31;5.85;;;2.10;;
19163;SDS011;9714;51.208;4.242;2022-07-23T11:28:10;6.10;;;1.90;;
19163;SDS011;9714;51.208;4.242;2022-07-23T11:30:41;3.67;;;1.30;;
19163;SDS011;9714;51.208;4.242;2022-07-23T11:33:22;7.05;;;1.98;;
19163;SDS011;9714;51.208;4.242;2022-07-23T11:36:03;3.42;;;1.13;;
19163;SDS011;9714;51.208;4.242;2022-07-23T11:38:31;2.70;;;1.08;;
19163;SDS011;9714;51.208;4.242;2022-07-23T11:40:58;4.25;;;1.45;;
19163;SDS011;9714;51.208;4.242;2022-07-23T11:43:25;4.85;;;1.40;;
19163;SDS011;9714;51.208;4.242;2022-07-23T11:45:54;3.58;;;1.30;;
19163;SDS011;9714;51.208;4.242;2022-07-23T11:48:26;3.55;;;1.05;;
19163;SDS011;9714;51.208;4.242;2022-07-23T11:50:55;3.67;;;1.08;;
19163;SDS011;9714;51.208;4.242;2022-07-23T11:53:23;3.28;;;1.10;;
19163;SDS011;9714;51.208;4.242;2022-07-23T11:55:51;3.78;;;1.30;;
19163;SDS011;9714;51.208;4.242;2022-07-23T11:58:20;4.38;;;1.50;;
19163;SDS011;9714;51.208;4.242;2022-07-23T12:00:47;4.57;;;1.60;;
19163;SDS011;9714;51.208;4.242;2022-07-23T12:03:16;4.13;;;1.25;;
19163;SDS011;9714;51.208;4.242;2022-07-23T12:05:44;4.18;;;1.20;;
19163;SDS011;9714;51.208;4.242;2022-07-23T12:08:11;6.47;;;1.40;;
19163;SDS011;9714;51.208;4.242;2022-07-23T12:10:39;5.43;;;1.50;;
19163;SDS011;9714;51.208;4.242;2022-07-23T12:13:08;4.35;;;1.23;;
19163;SDS011;9714;51.208;4.242;2022-07-23T12:15:37;4.13;;;1.23;;
19163;SDS011;9714;51.208;4.242;2022-07-23T12:18:05;2.20;;;1.10;;
19163;SDS011;9714;51.208;4.242;2022-07-23T12:20:34;2.45;;;1.05;;
19163;SDS011;9714;51.208;4.242;2022-07-23T12:23:04;3.95;;;1.30;;
19163;SDS011;9714;51.208;4.242;2022-07-23T12:25:33;7.78;;;1.75;;
19163;SDS011;9714;51.208;4.242;2022-07-23T12:28:03;7.75;;;1.38;;
19163;SDS011;9714;51.208;4.242;2022-07-23T12:30:32;4.07;;;1.50;;
19163;SDS011;9714;51.208;4.242;2022-07-23T12:33:00;5.15;;;1.30;;
19163;SDS011;9714;51.208;4.242;2022-07-23T12:35:32;3.70;;;1.20;;
19163;SDS011;9714;51.208;4.242;2022-07-23T12:38:04;3.45;;;1.27;;
19163;SDS011;9714;51.208;4.242;2022-07-23T12:40:33;3.97;;;1.40;;
19163;SDS011;9714;51.208;4.242;2022-07-23T12:43:03;4.10;;;1.45;;
19163;SDS011;9714;51.208;4.242;2022-07-23T12:45:45;4.15;;;1.40;;
19163;SDS011;9714;51.208;4.242;2022-07-23T12:48:20;5.18;;;1.35;;
19163;SDS011;9714;51.208;4.242;2022-07-23T12:50:52;4.53;;;1.38;;
19163;SDS011;9714;51.208;4.242;2022-07-23T12:53:22;4.10;;;1.30;;
19163;SDS011;9714;51.208;4.242;2022-07-23T12:55:50;5.70;;;1.30;;
19163;SDS011;9714;51.208;4.242;2022-07-23T12:58:23;3.50;;;1.23;;
19163;SDS011;9714;51.208;4.242;2022-07-23T13:01:01;6.10;;;1.42;;
19163;SDS011;9714;51.208;4.242;2022-07-23T13:03:34;4.15;;;1.48;;
19163;SDS011;9714;51.208;4.242;2022-07-23T13:06:04;5.00;;;1.40;;
19163;SDS011;9714;51.208;4.242;2022-07-23T13:08:34;5.72;;;1.60;;
19163;SDS011;9714;51.208;4.242;2022-07-23T13:11:03;7.70;;;1.42;;
19163;SDS011;9714;51.208;4.242;2022-07-23T13:13:31;3.47;;;1.55;;
19163;SDS011;9714;51.208;4.242;2022-07-23T13:16:01;4.75;;;1.27;;
19163;SDS011;9714;51.208;4.242;2022-07-23T13:18:28;5.38;;;1.67;;
19163;SDS011;9714;51.208;4.242;2022-07-23T13:20:56;4.80;;;1.58;;
19163;SDS011;9714;51.208;4.242;2022-07-23T13:23:23;5.13;;;1.67;;
19163;SDS011;9714;51.208;4.242;2022-07-23T13:25:52;5.35;;;1.75;;
19163;SDS011;9714;51.208;4.242;2022-07-23T13:28:20;6.82;;;1.70;;
19163;SDS011;9714;51.208;4.242;2022-07-23T13:30:49;4.50;;;1.15;;
19163;SDS011;9714;51.208;4.242;2022-07-23T13:33:18;6.85;;;2.05;;
19163;SDS011;9714;51.208;4.242;2022-07-23T13:35:45;3.60;;;1.17;;
19163;SDS011;9714;51.208;4.242;2022-07-23T13:38:13;4.32;;;1.35;;
19163;SDS011;9714;51.208;4.242;2022-07-23T13:40:41;7.13;;;1.98;;
19163;SDS011;9714;51.208;4.242;2022-07-23T13:43:11;7.35;;;1.58;;
19163;SDS011;9714;51.208;4.242;2022-07-23T13:45:40;5.35;;;1.63;;
19163;SDS011;9714;51.208;4.242;2022-07-23T13:48:09;5.13;;;2.08;;
19163;SDS011;9714;51.208;4.242;2022-07-23T13:50:38;4.03;;;1.90;;
19163;SDS011;9714;51.208;4.242;2022-07-23T13:53:06;5.70;;;1.83;;
19163;SDS011;9714;51.208;4.242;2022-07-23T13:55:36;3.35;;;1.73;;
19163;SDS011;9714;51.208;4.242;2022-07-23T13:58:05;5.15;;;1.90;;
19163;SDS011;9714;51.208;4.242;2022-07-23T14:00:36;5.10;;;1.98;;
19163;SDS011;9714;51.208;4.242;2022-07-23T14:03:04;8.05;;;2.13;;
19163;SDS011;9714;51.208;4.242;2022-07-23T14:05:31;9.45;;;2.15;;
19163;SDS011;9714;51.208;4.242;2022-07-23T14:07:58;7.30;;;1.83;;
19163;SDS011;9714;51.208;4.242;2022-07-23T14:10:26;5.85;;;1.95;;
19163;SDS011;9714;51.208;4.242;2022-07-23T14:12:53;4.50;;;1.90;;
19163;SDS011;9714;51.208;4.242;2022-07-23T14:15:22;6.38;;;1.88;;
19163;SDS011;9714;51.208;4.242;2022-07-23T14:17:53;6.25;;;2.55;;
19163;SDS011;9714;51.208;4.242;2022-07-23T14:20:21;8.40;;;2.75;;
19163;SDS011;9714;51.208;4.242;2022-07-23T14:22:48;7.45;;;2.92;;
19163;SDS011;9714;51.208;4.242;2022-07-23T14:25:16;8.20;;;3.05;;
19163;SDS011;9714;51.208;4.242;2022-07-23T14:27:43;8.93;;;2.88;;
19163;SDS011;9714;51.208;4.242;2022-07-23T14:30:11;8.13;;;2.75;;
19163;SDS011;9714;51.208;4.242;2022-07-23T14:32:40;6.13;;;2.33;;
19163;SDS011;9714;51.208;4.242;2022-07-23T14:35:08;4.18;;;2.10;;
19163;SDS011;9714;51.208;4.242;2022-07-23T14:37:35;6.82;;;2.25;;
19163;SDS011;9714;51.208;4.242;2022-07-23T14:40:03;7.40;;;2.05;;
19163;SDS011;9714;51.208;4.242;2022-07-23T14:42:31;6.13;;;2.05;;
19163;SDS011;9714;51.208;4.242;2022-07-23T14:44:58;6.65;;;2.33;;
19163;SDS011;9714;51.208;4.242;2022-07-23T14:47:25;6.88;;;2.63;;
19163;SDS011;9714;51.208;4.242;2022-07-23T14:49:53;5.30;;;2.20;;
19163;SDS011;9714;51.208;4.242;2022-07-23T14:52:23;3.13;;;1.77;;
19163;SDS011;9714;51.208;4.242;2022-07-23T14:54:50;5.45;;;2.10;;
19163;SDS011;9714;51.208;4.242;2022-07-23T14:57:17;7.80;;;2.65;;
19163;SDS011;9714;51.208;4.242;2022-07-23T14:59:44;9.77;;;2.75;;
19163;SDS011;9714;51.208;4.242;2022-07-23T15:02:11;7.90;;;2.88;;
19163;SDS011;9714;51.208;4.242;2022-07-23T15:04:38;6.70;;;2.72;;
19163;SDS011;9714;51.208;4.242;2022-07-23T15:07:05;4.50;;;2.30;;
19163;SDS011;9714;51.208;4.242;2022-07-23T15:09:34;8.07;;;2.70;;
19163;SDS011;9714;51.208;4.242;2022-07-23T15:12:01;8.18;;;2.50;;